createdAt,value
2022-11-07T00:00:18.438Z,19.98
2022-11-07T00:02:43.208Z,20.15
2022-11-07T00:05:09.386Z,20.50
2022-11-07T00:07:57.799Z,22.75
2022-11-07T00:09:08.238Z,22.43
2022-11-07T00:11:34.671Z,21.72
2022-11-07T00:12:43.713Z,26.02
2022-11-07T00:15:08.533Z,23.37
2022-11-07T00:17:34.852Z,21.43
2022-11-07T00:18:44.980Z,20.80
2022-11-07T00:21:10.331Z,20.25
2022-11-07T00:23:35.886Z,21.93
2022-11-07T00:26:07.380Z,20.88
2022-11-07T00:28:42.419Z,20.85
2022-11-07T00:31:08.689Z,19.70
2022-11-07T00:33:33.961Z,19.75
2022-11-07T00:36:01.577Z,20.20
2022-11-07T00:37:10.269Z,19.90
2022-11-07T00:39:36.752Z,21.82
2022-11-07T00:40:55.060Z,20.12
2022-11-07T00:43:19.333Z,22.97
2022-11-07T00:45:44.007Z,24.53
2022-11-07T00:46:53.896Z,24.93
2022-11-07T00:48:02.532Z,23.63
2022-11-07T00:49:11.728Z,21.30
2022-11-07T00:50:21.453Z,21.60
2022-11-07T00:52:46.053Z,21.02
2022-11-07T00:55:11.768Z,20.18
2022-11-07T00:57:41.374Z,20.23
2022-11-07T00:58:56.236Z,19.02
2022-11-07T01:01:25.549Z,20.00
2022-11-07T01:04:09.567Z,22.15
2022-11-07T01:06:38.119Z,21.20
2022-11-07T01:07:47.888Z,21.12
2022-11-07T01:10:14.357Z,21.77
2022-11-07T01:11:25.877Z,19.60
2022-11-07T01:13:52.594Z,22.22
2022-11-07T01:16:18.745Z,22.53
2022-11-07T01:17:30.531Z,21.35
2022-11-07T01:18:40.202Z,20.53
2022-11-07T01:19:49.353Z,19.42
2022-11-07T01:20:59.218Z,20.20
2022-11-07T01:23:28.021Z,20.37
2022-11-07T01:25:52.006Z,21.75
2022-11-07T01:28:16.897Z,22.14
2022-11-07T01:30:43.347Z,24.73
2022-11-07T01:31:52.795Z,24.76
2022-11-07T01:34:17.918Z,25.68
2022-11-07T01:36:42.239Z,20.37
2022-11-07T01:37:51.352Z,19.93
2022-11-07T01:39:01.805Z,19.50
2022-11-07T01:41:35.053Z,18.63
2022-11-07T01:44:13.816Z,19.90
2022-11-07T01:45:29.690Z,19.00
2022-11-07T01:48:00.145Z,19.73
2022-11-07T01:50:42.179Z,18.98
2022-11-07T01:53:22.165Z,19.85
2022-11-07T01:54:35.542Z,19.33
2022-11-07T01:58:23.230Z,18.33
2022-11-07T01:59:35.017Z,19.40
2022-11-07T02:02:00.721Z,22.03
2022-11-07T02:04:31.585Z,22.18
2022-11-07T02:07:20.616Z,22.62
2022-11-07T02:08:33.169Z,25.12
2022-11-07T02:09:43.764Z,25.30
2022-11-07T02:10:54.281Z,25.37
2022-11-07T02:12:04.139Z,21.00
2022-11-07T02:14:33.455Z,17.78
2022-11-07T02:16:57.596Z,19.42
2022-11-07T02:20:52.706Z,18.80
2022-11-07T02:22:15.173Z,19.15
2022-11-07T02:24:51.248Z,16.88
2022-11-07T02:26:01.102Z,17.17
2022-11-07T02:28:31.054Z,18.47
2022-11-07T02:33:32.997Z,18.25
2022-11-07T02:34:45.611Z,18.42
2022-11-07T02:38:37.217Z,17.88
2022-11-07T02:41:06.316Z,19.10
2022-11-07T02:43:55.407Z,19.73
2022-11-07T02:45:05.875Z,21.50
2022-11-07T02:47:33.045Z,21.73
2022-11-07T02:48:45.570Z,23.02
2022-11-07T02:51:11.059Z,23.55
2022-11-07T02:53:37.180Z,19.10
2022-11-07T02:54:46.361Z,18.25
2022-11-07T02:57:30.919Z,19.50
2022-11-07T02:58:41.620Z,17.60
2022-11-07T03:01:06.930Z,16.35
2022-11-07T03:03:31.981Z,17.08
2022-11-07T03:05:56.287Z,16.17
2022-11-07T03:08:22.223Z,15.48
2022-11-07T03:09:32.585Z,19.18
2022-11-07T03:11:56.303Z,20.25
2022-11-07T03:14:21.098Z,21.30
2022-11-07T03:16:46.746Z,22.38
2022-11-07T03:19:12.654Z,22.35
2022-11-07T03:21:36.742Z,23.15
2022-11-07T03:24:04.098Z,19.35
2022-11-07T03:26:29.379Z,20.88
2022-11-07T03:29:04.404Z,18.13
2022-11-07T03:30:14.481Z,18.02
2022-11-07T03:32:40.170Z,17.73
2022-11-07T03:35:05.171Z,16.77
2022-11-07T03:37:30.532Z,16.33
2022-11-07T03:39:55.303Z,16.93
2022-11-07T03:42:21.818Z,14.57
2022-11-07T03:43:30.835Z,18.15
2022-11-07T03:45:56.170Z,18.57
2022-11-07T03:47:05.533Z,17.97
2022-11-07T03:49:29.543Z,21.05
2022-11-07T03:50:39.423Z,19.73
2022-11-07T03:51:51.120Z,21.08
2022-11-07T03:53:00.891Z,21.22
2022-11-07T03:55:26.031Z,22.13
2022-11-07T03:57:51.098Z,18.07
2022-11-07T04:00:18.185Z,18.28
2022-11-07T04:02:44.963Z,17.83
2022-11-07T04:03:56.314Z,18.20
2022-11-07T04:06:23.363Z,17.23
2022-11-07T04:07:33.239Z,13.30
2022-11-07T04:09:58.585Z,17.40
2022-11-07T04:12:41.973Z,15.07
2022-11-07T04:15:44.655Z,15.90
2022-11-07T04:18:28.806Z,17.10
2022-11-07T04:20:52.389Z,18.70
2022-11-07T04:22:01.652Z,18.32
2022-11-07T04:23:10.875Z,19.85
2022-11-07T04:25:53.420Z,21.17
2022-11-07T04:28:37.327Z,18.70
2022-11-07T04:29:46.927Z,20.17
2022-11-07T04:32:10.514Z,23.02
2022-11-07T04:34:35.660Z,22.15
2022-11-07T04:36:59.928Z,17.52
2022-11-07T04:39:23.575Z,16.18
2022-11-07T04:41:48.899Z,15.92
2022-11-07T04:42:58.650Z,14.93
2022-11-07T04:44:08.282Z,15.12
2022-11-07T04:46:32.438Z,14.18
2022-11-07T04:47:41.636Z,14.88
2022-11-07T04:50:07.821Z,14.03
2022-11-07T04:51:24.208Z,14.53
2022-11-07T04:53:48.547Z,17.40
2022-11-07T04:54:59.028Z,17.60
2022-11-07T04:57:23.617Z,18.88
2022-11-07T04:59:47.066Z,20.07
2022-11-07T05:02:14.195Z,21.20
2022-11-07T05:04:53.903Z,20.53
2022-11-07T06:50:12.658Z,14.58
2022-11-07T06:51:21.634Z,15.58
2022-11-07T06:53:45.716Z,13.18
2022-11-07T06:57:30.164Z,16.30
2022-11-07T06:59:55.948Z,17.82
2022-11-07T07:02:44.134Z,18.63
2022-11-07T07:03:34.799Z,20.35
2022-11-07T07:04:44.059Z,19.70
2022-11-07T07:07:29.927Z,18.47
2022-11-07T07:09:54.728Z,19.02
2022-11-07T07:11:06.915Z,19.52
2022-11-07T07:13:32.116Z,20.85
2022-11-07T07:14:41.828Z,20.65
2022-11-07T07:17:12.220Z,25.08
2022-11-07T07:19:47.347Z,21.70
2022-11-07T07:21:05.610Z,20.82
2022-11-07T07:22:15.519Z,21.08
2022-11-07T07:24:40.515Z,22.68
2022-11-07T07:27:04.538Z,22.22
2022-11-07T07:29:29.739Z,22.47
2022-11-07T07:30:38.978Z,22.67
2022-11-07T07:33:04.877Z,23.13
2022-11-07T07:35:29.052Z,22.12
2022-11-07T07:36:38.094Z,22.30
2022-11-07T07:39:08.660Z,22.08
2022-11-07T07:41:39.881Z,26.30
2022-11-07T07:44:00.504Z,28.40
2022-11-07T07:46:28.530Z,27.80
2022-11-07T07:48:54.804Z,25.47
2022-11-07T07:51:21.479Z,17.92
2022-11-07T07:53:45.163Z,15.40
2022-11-07T07:56:11.190Z,17.18
2022-11-07T07:57:20.854Z,16.25
2022-11-07T07:59:47.594Z,14.72
2022-11-07T08:02:15.037Z,17.73
2022-11-07T08:03:50.593Z,19.18
2022-11-07T08:05:58.918Z,21.30
2022-11-07T08:08:25.463Z,19.95
2022-11-07T08:10:59.013Z,20.15
2022-11-07T08:13:25.971Z,20.88
2022-11-07T08:15:51.454Z,21.13
2022-11-07T08:17:10.692Z,21.23
2022-11-07T08:18:22.176Z,19.25
2022-11-07T08:19:33.151Z,20.80
2022-11-07T08:20:43.459Z,21.60
2022-11-07T08:21:54.247Z,22.05
2022-11-07T08:24:13.899Z,21.87
2022-11-07T08:26:38.418Z,20.47
2022-11-07T08:29:08.094Z,20.90
2022-11-07T08:30:18.288Z,20.15
2022-11-07T08:32:41.940Z,19.82
2022-11-07T08:35:05.853Z,18.55
2022-11-07T08:36:15.874Z,19.55
2022-11-07T08:38:39.507Z,19.57
2022-11-07T08:39:48.829Z,18.60
2022-11-07T08:41:05.401Z,18.97
2022-11-07T08:43:30.267Z,19.15
2022-11-07T08:45:55.621Z,21.65
2022-11-07T08:47:08.616Z,19.90
2022-11-07T08:48:18.307Z,21.40
2022-11-07T08:49:27.903Z,19.65
2022-11-07T08:50:38.781Z,20.20
2022-11-07T08:54:12.089Z,17.77
2022-11-07T08:56:35.930Z,20.53
2022-11-07T08:59:00.126Z,19.95
2022-11-07T09:01:25.373Z,19.08
2022-11-07T09:03:56.441Z,17.98
2022-11-07T09:06:15.947Z,18.73
2022-11-07T09:08:40.570Z,17.67
2022-11-07T09:09:49.733Z,20.08
2022-11-07T09:12:19.265Z,19.30
2022-11-07T09:13:30.804Z,19.45
2022-11-07T09:14:42.895Z,17.78
2022-11-07T09:16:01.066Z,18.65
2022-11-07T09:17:09.878Z,16.93
2022-11-07T09:19:56.862Z,17.08
2022-11-07T09:22:20.639Z,18.83
2022-11-07T09:24:44.030Z,18.60
2022-11-07T09:27:08.017Z,19.42
2022-11-07T09:28:17.225Z,17.95
2022-11-07T09:30:41.468Z,19.30
2022-11-07T09:31:50.422Z,19.10
2022-11-07T09:33:00.339Z,18.50
2022-11-07T09:35:25.989Z,18.77
2022-11-07T09:37:51.799Z,18.85
2022-11-07T09:40:26.372Z,18.72
2022-11-07T09:43:40.299Z,19.58
2022-11-07T09:46:26.454Z,21.43
2022-11-07T09:49:19.814Z,19.35
2022-11-07T09:53:40.684Z,20.10
2022-11-07T09:56:18.444Z,19.87
2022-11-07T09:58:51.786Z,18.93
2022-11-07T10:01:22.878Z,18.30
2022-11-07T10:04:22.755Z,19.17
2022-11-07T10:06:37.060Z,17.97
2022-11-07T10:09:25.827Z,20.05
2022-11-07T10:10:41.555Z,20.13
2022-11-07T10:12:00.602Z,20.28
2022-11-07T10:14:55.506Z,19.28
2022-11-07T10:18:13.029Z,21.32
2022-11-07T10:21:38.511Z,18.28
2022-11-07T10:22:39.373Z,18.18
2022-11-07T10:26:00.768Z,20.02
2022-11-07T10:28:29.682Z,20.68
2022-11-07T10:31:07.544Z,21.70
2022-11-07T10:34:06.744Z,18.47
2022-11-07T10:36:42.531Z,20.73
2022-11-07T10:37:54.216Z,18.60
2022-11-07T10:40:34.658Z,18.20
2022-11-07T10:44:49.091Z,20.07
2022-11-07T10:45:59.332Z,20.05
2022-11-07T10:48:38.880Z,18.67
2022-11-07T10:51:36.212Z,18.95
2022-11-07T10:52:54.821Z,19.13
2022-11-07T10:55:22.517Z,19.63
2022-11-07T10:57:56.283Z,19.83
2022-11-07T11:00:30.738Z,20.77
2022-11-07T11:01:40.927Z,20.50
2022-11-07T11:04:06.521Z,20.15
2022-11-07T11:06:41.247Z,18.93
2022-11-07T11:09:16.615Z,20.77
2022-11-07T11:10:29.432Z,19.35
2022-11-07T11:11:39.160Z,20.10
2022-11-07T11:14:14.266Z,20.57
2022-11-07T11:16:43.332Z,18.40
2022-11-07T11:19:29.398Z,19.70
2022-11-07T11:21:59.005Z,20.67
2022-11-07T11:24:35.041Z,19.20
2022-11-07T11:25:49.271Z,18.50
2022-11-07T11:29:57.776Z,18.76
2022-11-07T11:32:41.698Z,16.25
2022-11-07T11:34:02.857Z,19.48
2022-11-07T11:35:22.924Z,16.60
2022-11-07T11:36:36.454Z,16.43
2022-11-07T11:37:51.064Z,16.70
2022-11-07T11:40:22.555Z,16.57
2022-11-07T11:43:04.534Z,16.82
2022-11-07T11:45:56.984Z,15.35
2022-11-07T11:48:49.025Z,17.38
2022-11-07T11:51:46.793Z,16.25
2022-11-07T11:52:55.870Z,16.82
2022-11-07T11:54:10.498Z,17.12
2022-11-07T11:55:23.053Z,15.73
2022-11-07T11:58:05.052Z,15.83
2022-11-07T12:05:04.778Z,14.18
2022-11-07T12:08:01.399Z,14.07
2022-11-07T12:11:00.832Z,13.75
2022-11-07T12:14:25.888Z,13.70
2022-11-07T12:17:15.927Z,15.60
2022-11-07T12:20:05.254Z,15.35
2022-11-07T12:22:59.277Z,15.93
2022-11-07T12:25:47.929Z,16.14
2022-11-07T12:28:54.702Z,17.30
2022-11-07T12:32:05.065Z,15.63
2022-11-07T12:35:00.780Z,15.30
2022-11-07T12:38:26.359Z,16.12
2022-11-07T12:42:33.197Z,16.57
2022-11-07T12:45:41.045Z,17.32
2022-11-07T12:48:26.216Z,16.60
2022-11-07T12:53:17.754Z,17.40
2022-11-07T12:54:48.374Z,17.05
2022-11-07T12:58:44.636Z,17.58
2022-11-07T13:01:27.581Z,15.25
2022-11-07T13:02:58.763Z,15.98
2022-11-07T13:05:49.502Z,16.62
2022-11-07T13:08:35.059Z,17.07
2022-11-07T13:11:26.463Z,17.23
2022-11-07T13:14:29.285Z,16.20
2022-11-07T13:17:11.076Z,16.35
2022-11-07T13:18:26.664Z,16.18
2022-11-07T13:19:40.782Z,16.17
2022-11-07T13:22:23.723Z,15.48
2022-11-07T13:25:18.694Z,15.88
2022-11-07T13:26:48.180Z,15.68
2022-11-07T13:29:29.275Z,16.25
2022-11-07T13:32:10.883Z,14.57
2022-11-07T13:35:00.029Z,15.65
2022-11-07T13:37:46.099Z,16.55
2022-11-07T13:38:59.481Z,16.57
2022-11-07T13:40:15.932Z,17.00
2022-11-07T13:42:42.344Z,16.37
2022-11-07T13:43:58.554Z,15.98
2022-11-07T13:46:45.561Z,15.45
2022-11-07T13:49:19.057Z,13.90
2022-11-07T13:52:01.200Z,15.67
2022-11-07T13:54:50.892Z,16.62
2022-11-07T13:57:25.531Z,16.63
2022-11-07T13:58:38.234Z,16.05
2022-11-07T14:01:22.507Z,15.27
2022-11-07T14:03:50.290Z,15.82
2022-11-07T14:06:20.707Z,16.18
2022-11-07T14:08:51.096Z,15.82
2022-11-07T14:10:02.376Z,16.02
2022-11-07T14:12:37.065Z,14.05
2022-11-07T14:13:49.279Z,15.08
2022-11-07T14:16:25.900Z,16.88
2022-11-07T14:17:36.231Z,15.75
2022-11-07T14:20:16.797Z,16.08
2022-11-07T14:22:57.894Z,15.42
2022-11-07T14:25:36.663Z,16.93
2022-11-07T14:28:17.705Z,15.53
2022-11-07T14:29:28.421Z,14.68
2022-11-07T14:32:01.945Z,16.50
2022-11-07T14:34:39.875Z,15.90
2022-11-07T14:37:07.436Z,15.38
2022-11-07T14:39:38.727Z,15.07
2022-11-07T14:42:06.246Z,15.43
2022-11-07T14:44:55.669Z,16.85
2022-11-07T14:48:35.878Z,15.78
2022-11-07T14:49:47.713Z,15.52
2022-11-07T14:52:19.154Z,16.75
2022-11-07T14:55:05.862Z,15.95
2022-11-07T14:56:18.476Z,16.43
2022-11-07T14:57:28.252Z,16.95
2022-11-07T14:58:37.090Z,15.72
2022-11-07T15:01:12.843Z,15.28
2022-11-07T15:03:53.260Z,15.28
2022-11-07T15:05:10.665Z,15.50
2022-11-07T15:07:47.146Z,15.62
2022-11-07T15:10:39.907Z,16.50
2022-11-07T15:13:24.847Z,16.32
2022-11-07T15:16:10.693Z,14.50
2022-11-07T15:17:25.817Z,15.37
2022-11-07T15:20:06.787Z,14.28
2022-11-07T15:22:45.619Z,15.65
2022-11-07T15:25:28.740Z,15.78
2022-11-07T15:26:38.504Z,14.02
2022-11-07T15:27:47.194Z,15.03
2022-11-07T15:30:29.929Z,15.55
2022-11-07T15:32:56.552Z,16.98
2022-11-07T15:37:55.163Z,15.60
2022-11-07T15:40:21.200Z,16.00
2022-11-07T15:42:45.836Z,15.25
2022-11-07T15:43:55.252Z,17.00
2022-11-07T15:46:38.836Z,16.63
2022-11-07T15:47:48.845Z,16.30
2022-11-07T15:50:18.474Z,15.55
2022-11-07T15:52:44.082Z,18.10
2022-11-07T15:55:12.090Z,17.50
2022-11-07T15:57:41.002Z,15.75
2022-11-07T16:00:18.670Z,15.67
2022-11-07T16:02:44.296Z,17.60
2022-11-07T16:03:53.178Z,17.12
2022-11-07T16:06:24.240Z,17.88
2022-11-07T16:07:34.154Z,16.15
2022-11-07T16:09:59.948Z,17.35
2022-11-07T16:11:12.107Z,16.92
2022-11-07T16:13:38.359Z,17.37
2022-11-07T16:16:06.237Z,17.32
2022-11-07T16:18:42.353Z,16.17
2022-11-07T16:21:12.983Z,17.50
2022-11-07T16:23:39.231Z,16.70
2022-11-07T16:26:02.924Z,16.28
2022-11-07T16:27:15.727Z,17.18
2022-11-07T16:29:43.916Z,16.98
2022-11-07T16:32:17.331Z,17.63
2022-11-07T16:34:39.248Z,17.10
2022-11-07T16:37:06.966Z,17.43
2022-11-07T16:39:33.747Z,18.45
2022-11-07T16:40:44.086Z,16.35
2022-11-07T16:43:07.763Z,16.97
2022-11-07T16:45:32.193Z,18.02
2022-11-07T16:47:59.431Z,17.45
2022-11-07T16:50:30.944Z,16.78
2022-11-07T16:53:00.400Z,16.70
2022-11-07T16:55:25.824Z,17.65
2022-11-07T16:57:50.373Z,16.80
2022-11-07T16:58:59.864Z,16.85
2022-11-07T17:01:35.413Z,17.25
2022-11-07T17:04:01.068Z,16.23
2022-11-07T17:05:10.658Z,17.90
2022-11-07T17:06:34.442Z,17.15
2022-11-07T17:09:08.696Z,17.42
2022-11-07T17:10:18.292Z,16.93
2022-11-07T17:12:43.131Z,16.77
2022-11-07T17:15:09.291Z,17.32
2022-11-07T17:16:23.909Z,15.98
2022-11-07T17:17:33.017Z,17.65
2022-11-07T17:19:58.312Z,17.60
2022-11-07T17:22:27.092Z,18.80
2022-11-07T17:23:37.289Z,17.65
2022-11-07T17:26:03.831Z,17.97
2022-11-07T17:28:39.794Z,17.25
2022-11-07T17:29:49.823Z,18.43
2022-11-07T17:32:13.428Z,17.40
2022-11-07T17:34:36.850Z,18.15
2022-11-07T17:37:01.745Z,19.37
2022-11-07T17:39:31.317Z,17.77
2022-11-07T17:40:40.365Z,19.68
2022-11-07T17:43:05.386Z,19.70
2022-11-07T17:45:31.574Z,19.28
2022-11-07T17:47:59.465Z,20.45
2022-11-07T17:50:47.357Z,19.07
2022-11-07T17:53:12.739Z,20.30
2022-11-07T17:55:38.422Z,19.82
2022-11-07T17:58:02.440Z,17.07
2022-11-07T17:59:17.414Z,19.38
2022-11-07T18:00:27.857Z,18.88
2022-11-07T18:02:53.607Z,18.47
2022-11-07T18:05:21.842Z,20.37
2022-11-07T18:09:01.412Z,19.92
2022-11-07T18:10:12.697Z,19.82
2022-11-07T18:12:39.470Z,20.93
2022-11-07T18:15:13.884Z,20.27
2022-11-07T18:17:42.076Z,19.95
2022-11-07T18:20:09.427Z,15.50
2022-11-07T18:22:34.654Z,14.98
2022-11-07T18:24:58.768Z,15.05
2022-11-07T18:27:27.037Z,15.78
2022-11-07T18:29:54.086Z,17.45
2022-11-07T18:31:05.744Z,17.12
2022-11-07T18:33:30.557Z,18.78
2022-11-07T18:35:58.183Z,18.47
2022-11-07T18:38:21.787Z,29.65
2022-11-07T18:39:30.658Z,20.48
2022-11-07T18:41:54.694Z,19.63
2022-11-07T18:43:04.304Z,19.30
2022-11-07T18:45:29.676Z,20.47
2022-11-07T18:46:39.557Z,20.17
2022-11-07T18:47:58.618Z,19.05
2022-11-07T18:50:23.289Z,19.47
2022-11-07T18:52:49.409Z,20.75
2022-11-07T18:55:16.775Z,21.35
2022-11-07T18:56:27.027Z,19.95
2022-11-07T18:58:51.775Z,21.12
2022-11-07T19:01:22.404Z,21.20
2022-11-07T19:03:48.108Z,22.15
2022-11-07T19:05:00.102Z,23.20
2022-11-07T19:06:12.220Z,21.88
2022-11-07T19:08:39.952Z,22.15
2022-11-07T19:11:09.167Z,22.95
2022-11-07T19:12:18.472Z,22.50
2022-11-07T19:14:42.711Z,23.82
2022-11-07T19:17:08.778Z,24.50
2022-11-07T19:18:19.138Z,22.75
2022-11-07T19:19:28.759Z,23.95
2022-11-07T19:21:54.484Z,23.68
2022-11-07T19:23:03.389Z,19.48
2022-11-07T19:24:13.264Z,20.47
2022-11-07T19:26:40.008Z,16.23
2022-11-07T19:29:11.569Z,18.18
2022-11-07T19:31:39.052Z,19.55
2022-11-07T19:34:03.252Z,19.95
2022-11-07T19:36:26.854Z,21.00
2022-11-07T19:37:36.197Z,21.72
2022-11-07T19:38:46.055Z,22.78
2022-11-07T19:39:55.957Z,21.32
2022-11-07T19:41:06.672Z,23.32
2022-11-07T19:43:32.434Z,23.02
2022-11-07T19:45:56.938Z,22.92
2022-11-07T19:48:22.269Z,23.35
2022-11-07T19:49:32.019Z,22.45
2022-11-07T19:51:56.654Z,24.77
2022-11-07T19:53:06.070Z,25.12
2022-11-07T19:55:30.979Z,24.88
2022-11-07T19:56:40.302Z,25.82
2022-11-07T19:59:06.188Z,25.70
2022-11-07T20:00:17.756Z,25.25
2022-11-07T20:02:48.272Z,24.58
2022-11-07T20:05:15.374Z,24.98
2022-11-07T20:07:50.286Z,23.50
2022-11-07T20:10:14.963Z,25.97
2022-11-07T20:12:40.403Z,25.03
2022-11-07T20:15:06.218Z,25.53
2022-11-07T20:18:40.948Z,24.33
2022-11-07T20:19:50.162Z,24.18
2022-11-07T20:22:16.814Z,23.85
2022-11-07T20:25:00.484Z,24.65
2022-11-07T20:27:30.330Z,24.00
2022-11-07T20:29:56.489Z,24.10
2022-11-07T20:31:13.489Z,25.55
2022-11-07T20:34:00.496Z,25.63
2022-11-07T20:36:25.698Z,25.85
2022-11-07T20:37:36.899Z,24.24
2022-11-07T20:38:47.112Z,24.62
2022-11-07T20:41:12.540Z,25.20
2022-11-07T20:42:21.637Z,25.50
2022-11-07T20:44:46.290Z,25.07
2022-11-07T20:45:57.147Z,25.08
2022-11-07T20:48:23.560Z,24.97
2022-11-07T20:50:49.035Z,26.15
2022-11-07T20:51:58.582Z,24.30
2022-11-07T20:53:08.901Z,23.85
2022-11-07T20:54:18.024Z,24.05
2022-11-07T20:56:43.309Z,24.70
2022-11-07T20:57:52.513Z,25.55
2022-11-07T21:00:19.117Z,28.42
2022-11-07T21:02:52.236Z,26.95
2022-11-07T21:04:05.804Z,24.65
2022-11-07T21:06:33.935Z,25.78
2022-11-07T21:08:59.075Z,26.32
2022-11-07T21:11:24.951Z,27.20
2022-11-07T21:13:52.933Z,24.77
2022-11-07T21:16:15.071Z,24.25
2022-11-07T21:18:39.423Z,24.85
2022-11-07T21:21:07.001Z,25.13
2022-11-07T21:22:15.764Z,26.33
2022-11-07T21:24:43.299Z,23.93
2022-11-07T21:27:07.447Z,24.72
2022-11-07T21:29:33.219Z,25.66
2022-11-07T21:32:02.044Z,24.77
2022-11-07T21:34:28.140Z,24.45
2022-11-07T21:36:58.018Z,24.97
2022-11-07T21:39:42.204Z,24.13
2022-11-07T21:42:07.712Z,25.45
2022-11-07T21:43:17.869Z,24.35
2022-11-07T21:45:42.213Z,27.02
2022-11-07T21:48:06.158Z,26.98
2022-11-07T21:50:44.241Z,25.23
2022-11-07T21:52:59.458Z,22.97
2022-11-07T21:55:25.608Z,24.55
2022-11-07T21:57:53.357Z,25.53
2022-11-07T22:00:41.084Z,26.25
2022-11-07T22:03:06.177Z,26.48
2022-11-07T22:05:30.391Z,27.55
2022-11-07T22:06:43.058Z,28.00
2022-11-07T22:09:09.432Z,28.52
2022-11-07T22:11:34.605Z,26.70
2022-11-07T22:12:43.764Z,27.40
2022-11-07T22:15:10.408Z,28.25
2022-11-07T22:16:21.906Z,27.45
2022-11-07T22:17:31.342Z,26.55
2022-11-07T22:18:40.933Z,26.73
2022-11-07T22:21:08.553Z,24.88
2022-11-07T22:23:35.076Z,27.97
2022-11-07T22:24:45.256Z,27.45
2022-11-07T22:25:54.909Z,28.55
2022-11-07T22:28:18.624Z,27.12
2022-11-07T22:30:43.200Z,27.25
2022-11-07T22:33:06.819Z,27.82
2022-11-07T22:35:36.282Z,26.18
2022-11-07T22:38:00.406Z,25.83
2022-11-07T22:40:25.999Z,26.10
2022-11-07T22:42:54.671Z,27.28
2022-11-07T22:45:18.033Z,28.35
2022-11-07T22:47:46.281Z,26.25
2022-11-07T22:49:03.361Z,27.30
2022-11-07T22:50:12.157Z,28.02
2022-11-07T22:52:39.603Z,27.42
2022-11-07T22:55:06.504Z,27.45
2022-11-07T22:57:34.508Z,27.30
2022-11-07T23:00:19.557Z,27.60
2022-11-07T23:01:18.927Z,28.35
2022-11-07T23:02:28.250Z,27.93
2022-11-07T23:04:52.900Z,28.85
2022-11-07T23:07:18.871Z,29.32
2022-11-07T23:09:43.377Z,28.32
2022-11-07T23:11:34.934Z,27.70
2022-11-07T23:12:10.997Z,29.02
2022-11-07T23:13:25.811Z,27.62
2022-11-07T23:14:35.583Z,28.10
2022-11-07T23:16:59.523Z,27.47
2022-11-07T23:18:08.113Z,26.37
2022-11-07T23:19:19.137Z,23.58
2022-11-07T23:20:46.688Z,24.72
2022-11-07T23:21:56.988Z,26.75
2022-11-07T23:23:06.151Z,26.50
2022-11-07T23:24:15.876Z,26.18
2022-11-07T23:26:40.944Z,26.13
2022-11-07T23:30:24.693Z,26.93
2022-11-07T23:31:34.798Z,26.47
2022-11-07T23:32:43.954Z,25.40
2022-11-07T23:35:09.390Z,26.25
2022-11-07T23:37:35.425Z,27.02
2022-11-07T23:38:45.362Z,25.05
2022-11-07T23:39:56.632Z,20.22
2022-11-07T23:42:22.591Z,23.38
2022-11-07T23:45:10.592Z,26.00
2022-11-07T23:48:12.763Z,26.97
2022-11-07T23:51:03.573Z,26.28
2022-11-07T23:52:14.427Z,24.75
2022-11-07T23:53:43.380Z,23.88
2022-11-07T23:56:27.650Z,23.40
2022-11-07T23:59:14.541Z,22.02
